Time;durP1;ratioP1;P1;durP2;ratioP2;P2;SDS_P1;SDS_P2;PMS_P1;PMS_P2;Temp;Humidity;BMP_temperature;BMP_pressure;BME280_temperature;BME280_humidity;BME280_pressure;Samples;Min_cycle;Max_cycle;Signal;HPM_P1;HPM_P2
2020/12/29 00:02:24;;;;;;;56.38;3.15;;;2.60;1.00;;;;;;4992182;28;20629;-67
2020/12/29 00:04:50;;;;;;;57.08;3.33;;;2.80;1.00;;;;;;4991689;28;20250;-68
2020/12/29 00:07:17;;;;;;;56.40;2.97;;;2.90;1.00;;;;;;4991821;28;20235;-68
2020/12/29 00:09:43;;;;;;;56.05;2.53;;;3.10;1.00;;;;;;4991721;28;20294;-68
2020/12/29 00:12:09;;;;;;;56.25;3.13;;;3.20;1.00;;;;;;4993168;28;20211;-68
2020/12/29 00:14:36;;;;;;;56.95;2.80;;;3.40;1.00;;;;;;5002303;28;20219;-68
2020/12/29 00:17:03;;;;;;;56.05;2.95;;;3.50;1.00;;;;;;5003871;28;20254;-68
2020/12/29 00:19:29;;;;;;;56.40;2.90;;;3.60;1.00;;;;;;4997803;28;20204;-68
2020/12/29 00:21:56;;;;;;;55.30;2.45;;;3.60;1.00;;;;;;4996070;28;20579;-67
2020/12/29 00:24:22;;;;;;;55.28;2.72;;;3.60;1.00;;;;;;4995415;28;20271;-68
2020/12/29 00:26:49;;;;;;;56.47;2.90;;;3.60;1.00;;;;;;4995164;28;20818;-68
2020/12/29 00:29:15;;;;;;;56.35;2.83;;;3.60;1.00;;;;;;4995539;28;20204;-68
2020/12/29 00:31:42;;;;;;;56.30;3.20;;;3.60;1.00;;;;;;4995278;28;20207;-68
2020/12/29 00:34:09;;;;;;;55.95;2.80;;;3.60;1.00;;;;;;4995040;28;20739;-68
2020/12/29 00:36:36;;;;;;;56.03;2.75;;;3.60;1.00;;;;;;4995057;28;20223;-68
2020/12/29 00:39:03;;;;;;;55.83;2.42;;;3.50;1.00;;;;;;4994792;28;20606;-67
2020/12/29 00:41:30;;;;;;;57.13;2.90;;;3.60;1.00;;;;;;4995200;28;20294;-68
2020/12/29 00:43:56;;;;;;;55.90;2.50;;;3.60;1.00;;;;;;4995044;28;20875;-68
2020/12/29 00:46:23;;;;;;;55.80;2.70;;;3.60;1.00;;;;;;4994592;28;20228;-67
2020/12/29 00:48:50;;;;;;;58.47;2.53;;;3.70;1.00;;;;;;4994688;28;20214;-68
2020/12/29 00:51:19;;;;;;;55.78;2.60;;;3.80;1.00;;;;;;4994738;28;20298;-68
2020/12/29 00:53:45;;;;;;;55.50;2.40;;;3.80;1.00;;;;;;4994623;28;20211;-67
2020/12/29 00:56:12;;;;;;;55.50;2.30;;;3.90;1.00;;;;;;4994545;28;20224;-67
2020/12/29 00:58:40;;;;;;;55.85;2.40;;;3.90;1.00;;;;;;4994792;28;20336;-67
2020/12/29 01:01:07;;;;;;;55.78;2.70;;;3.90;1.00;;;;;;4994778;28;20235;-68
2020/12/29 01:03:34;;;;;;;55.30;2.10;;;3.90;1.00;;;;;;4994518;28;20218;-66
2020/12/29 01:06:01;;;;;;;56.17;2.65;;;3.90;1.00;;;;;;4993942;28;20240;-68
2020/12/29 01:08:27;;;;;;;55.50;2.00;;;4.00;1.00;;;;;;4994731;28;20277;-68
2020/12/29 01:10:55;;;;;;;55.92;2.35;;;4.00;1.00;;;;;;4994432;28;20207;-68
2020/12/29 01:13:22;;;;;;;56.17;2.63;;;4.00;1.00;;;;;;4994569;28;20211;-68
2020/12/29 01:15:50;;;;;;;55.50;2.15;;;4.00;1.00;;;;;;4994323;28;20224;-68
2020/12/29 01:18:16;;;;;;;55.50;2.30;;;4.00;1.00;;;;;;4994235;28;20258;-68
2020/12/29 01:20:42;;;;;;;55.67;2.40;;;3.90;1.00;;;;;;4994066;28;20208;-68
2020/12/29 01:23:10;;;;;;;56.00;2.50;;;3.80;1.00;;;;;;4994160;28;20755;-67
2020/12/29 01:25:39;;;;;;;55.63;2.42;;;3.90;1.00;;;;;;4994280;28;20259;-67
2020/12/29 01:28:05;;;;;;;56.08;2.58;;;3.80;1.00;;;;;;4994372;28;20626;-67
2020/12/29 01:30:32;;;;;;;55.88;2.45;;;3.80;1.00;;;;;;4994113;28;20211;-67
2020/12/29 01:32:58;;;;;;;55.92;2.50;;;3.80;1.00;;;;;;4993216;28;20674;-67
2020/12/29 01:35:24;;;;;;;55.78;2.40;;;3.80;1.00;;;;;;4993935;28;20266;-67
2020/12/29 01:37:51;;;;;;;55.50;2.30;;;3.80;1.00;;;;;;4993991;28;20299;-67
2020/12/29 01:40:18;;;;;;;56.55;2.50;;;3.70;1.00;;;;;;4994602;28;20212;-67
2020/12/29 01:42:46;;;;;;;55.78;2.35;;;3.70;1.00;;;;;;4994163;28;20214;-67
2020/12/29 01:45:14;;;;;;;55.45;2.30;;;3.70;1.00;;;;;;4993858;28;20224;-67
2020/12/29 01:47:42;;;;;;;55.38;2.25;;;3.60;1.00;;;;;;5035528;22;20323;-67
2020/12/29 01:50:10;;;;;;;55.30;2.10;;;3.70;1.00;;;;;;5051887;28;20256;-67
2020/12/29 01:52:38;;;;;;;55.70;2.60;;;3.70;1.00;;;;;;5052953;28;20279;-67
2020/12/29 01:55:05;;;;;;;56.03;2.33;;;3.70;1.00;;;;;;5052699;28;20214;-67
2020/12/29 01:57:33;;;;;;;55.42;2.40;;;3.70;1.00;;;;;;5052485;28;20206;-67
2020/12/29 02:00:00;;;;;;;56.20;2.35;;;3.70;1.00;;;;;;5052633;28;20209;-67
2020/12/29 02:02:27;;;;;;;55.80;2.47;;;3.80;1.00;;;;;;5052592;28;20209;-67
2020/12/29 02:04:54;;;;;;;55.30;2.15;;;3.80;1.00;;;;;;5052613;28;20212;-67
2020/12/29 02:07:20;;;;;;;57.25;2.33;;;3.80;1.00;;;;;;5052463;28;20660;-67
2020/12/29 02:09:47;;;;;;;55.63;2.03;;;3.90;1.00;;;;;;5052413;28;20209;-67
2020/12/29 02:12:27;;;;;;;55.22;2.15;;;3.90;1.00;;;;;;5052499;28;20205;-67
2020/12/29 02:14:55;;;;;;;55.47;2.17;;;3.90;1.00;;;;;;5052384;28;20213;-67
2020/12/29 02:17:21;;;;;;;55.58;2.25;;;3.90;1.00;;;;;;5052146;28;20237;-67
2020/12/29 02:19:49;;;;;;;55.78;2.17;;;3.90;1.00;;;;;;5052173;28;20232;-67
2020/12/29 02:22:20;;;;;;;55.40;2.40;;;3.90;1.00;;;;;;5052162;28;20260;-67
2020/12/29 02:24:51;;;;;;;55.45;1.95;;;3.90;1.00;;;;;;5052482;28;20210;-67
2020/12/29 02:27:18;;;;;;;56.15;2.33;;;3.90;1.00;;;;;;5051649;28;20228;-67
2020/12/29 02:29:45;;;;;;;63.35;5.40;;;4.00;1.00;;;;;;5052007;28;20245;-67
2020/12/29 02:32:11;;;;;;;55.88;2.45;;;4.00;1.00;;;;;;5052157;28;20259;-67
2020/12/29 02:34:38;;;;;;;55.60;2.25;;;4.00;1.00;;;;;;5048428;28;20449;-67
2020/12/29 02:37:06;;;;;;;55.53;2.17;;;4.00;1.00;;;;;;5051696;28;20205;-67
2020/12/29 02:39:34;;;;;;;55.60;2.10;;;4.10;1.00;;;;;;5051932;28;20225;-67
2020/12/29 02:42:00;;;;;;;56.47;2.58;;;4.10;1.00;;;;;;5051871;28;20210;-67
2020/12/29 02:44:27;;;;;;;55.30;2.00;;;4.10;1.00;;;;;;5051848;28;20205;-68
2020/12/29 02:46:53;;;;;;;55.30;2.00;;;4.10;1.00;;;;;;5051333;28;20230;-67
2020/12/29 02:49:20;;;;;;;55.25;1.83;;;4.20;1.00;;;;;;5051521;28;20244;-67
2020/12/29 02:51:46;;;;;;;55.17;2.00;;;4.30;1.00;;;;;;5051714;28;20210;-67
2020/12/29 02:54:13;;;;;;;55.60;2.10;;;4.40;1.00;;;;;;5051766;28;20343;-67
2020/12/29 02:56:40;;;;;;;55.17;2.25;;;4.40;1.00;;;;;;5051452;28;20229;-67
2020/12/29 02:59:07;;;;;;;55.15;1.90;;;4.50;1.00;;;;;;5051339;28;20284;-67
2020/12/29 03:01:34;;;;;;;55.45;2.20;;;4.60;1.00;;;;;;5051459;28;20271;-68
2020/12/29 03:04:00;;;;;;;55.40;1.90;;;4.60;1.00;;;;;;5051776;28;20228;-66
2020/12/29 03:06:27;;;;;;;55.60;1.90;;;4.60;1.00;;;;;;5051377;28;20248;-67
2020/12/29 03:08:53;;;;;;;55.80;2.05;;;4.70;1.00;;;;;;5051338;28;20732;-67
2020/12/29 03:11:28;;;;;;;55.53;2.10;;;4.70;1.00;;;;;;5051476;28;20205;-67
2020/12/29 03:13:58;;;;;;;55.20;2.00;;;4.80;1.00;;;;;;5051282;28;20216;-67
2020/12/29 03:16:24;;;;;;;55.67;2.10;;;4.80;1.00;;;;;;5051338;28;20584;-67
2020/12/29 03:18:51;;;;;;;55.28;1.98;;;4.80;1.00;;;;;;5051437;28;20225;-67
2020/12/29 03:21:17;;;;;;;55.90;2.20;;;4.80;1.00;;;;;;5051303;28;20209;-67
2020/12/29 03:23:44;;;;;;;55.50;2.10;;;4.80;1.00;;;;;;5051432;28;20247;-67
2020/12/29 03:26:10;;;;;;;55.47;1.95;;;4.70;1.00;;;;;;5050867;28;20221;-67
2020/12/29 03:28:37;;;;;;;56.15;1.90;;;4.60;1.00;;;;;;5051110;28;20274;-67
2020/12/29 03:31:05;;;;;;;55.10;1.90;;;4.60;1.00;;;;;;5051384;28;20224;-67
2020/12/29 03:33:31;;;;;;;55.75;2.33;;;4.50;1.00;;;;;;5051446;28;20214;-67
2020/12/29 03:35:58;;;;;;;55.30;2.00;;;4.50;1.00;;;;;;5051010;28;20202;-67
2020/12/29 03:38:24;;;;;;;55.28;2.10;;;4.50;1.00;;;;;;5052559;28;20271;-67
2020/12/29 03:40:51;;;;;;;55.35;2.10;;;4.50;1.00;;;;;;5055887;28;20254;-67
2020/12/29 03:43:18;;;;;;;55.50;2.10;;;4.50;1.00;;;;;;5051227;28;20240;-67
2020/12/29 03:45:46;;;;;;;55.22;2.10;;;4.50;1.00;;;;;;5051141;28;20339;-67
2020/12/29 03:48:15;;;;;;;55.15;2.30;;;4.50;1.00;;;;;;5050681;28;20268;-67
2020/12/29 03:50:43;;;;;;;55.50;2.10;;;4.50;1.00;;;;;;5051225;28;20206;-67
2020/12/29 03:53:10;;;;;;;56.05;2.00;;;4.40;1.00;;;;;;5051176;28;20244;-67
2020/12/29 03:55:37;;;;;;;55.17;2.03;;;4.30;1.00;;;;;;5052953;28;20201;-67
2020/12/29 03:58:03;;;;;;;55.20;2.00;;;4.30;1.00;;;;;;5054817;28;20599;-67
2020/12/29 04:00:30;;;;;;;55.55;2.10;;;4.30;1.00;;;;;;5055130;28;20216;-67
2020/12/29 04:02:56;;;;;;;55.35;2.10;;;4.30;1.00;;;;;;5054983;28;20209;-67
2020/12/29 04:05:24;;;;;;;56.22;2.30;;;4.20;1.00;;;;;;5054573;28;20230;-67
2020/12/29 04:07:50;;;;;;;55.50;2.20;;;4.20;1.00;;;;;;5054715;28;20646;-67
2020/12/29 04:10:17;;;;;;;55.92;2.10;;;4.20;1.00;;;;;;5054454;28;20205;-67
2020/12/29 04:12:44;;;;;;;56.42;2.20;;;4.20;1.00;;;;;;5054748;28;20687;-67
2020/12/29 04:15:10;;;;;;;55.28;2.00;;;4.20;1.00;;;;;;5054598;28;20726;-67
2020/12/29 04:17:38;;;;;;;55.38;2.00;;;4.30;1.00;;;;;;5054245;28;20668;-66
2020/12/29 04:20:06;;;;;;;55.83;2.05;;;4.30;1.00;;;;;;5054477;28;20216;-67
2020/12/29 04:22:34;;;;;;;56.92;2.30;;;4.30;1.00;;;;;;5054619;28;20205;-67
2020/12/29 04:25:01;;;;;;;55.63;2.03;;;4.30;1.00;;;;;;5054148;28;20305;-67
2020/12/29 04:27:28;;;;;;;55.30;2.00;;;4.30;1.00;;;;;;5054251;28;20202;-67
2020/12/29 04:29:54;;;;;;;55.10;2.40;;;4.40;1.00;;;;;;5054450;28;20296;-67
2020/12/29 04:32:20;;;;;;;55.55;2.25;;;4.40;1.00;;;;;;5054480;28;20205;-67
2020/12/29 04:34:47;;;;;;;55.78;2.10;;;4.40;1.00;;;;;;5054218;28;20586;-67
2020/12/29 04:37:14;;;;;;;55.78;2.13;;;4.40;1.00;;;;;;5053935;28;20675;-67
2020/12/29 04:39:41;;;;;;;56.50;2.30;;;4.40;1.00;;;;;;5053984;28;20607;-67
2020/12/29 04:42:11;;;;;;;56.10;2.40;;;4.40;1.00;;;;;;5054076;28;20706;-67
2020/12/29 04:44:38;;;;;;;55.40;2.03;;;4.40;1.00;;;;;;5054036;28;20831;-67
2020/12/29 04:47:05;;;;;;;56.47;2.20;;;4.40;1.00;;;;;;5054181;28;20233;-67
2020/12/29 04:49:33;;;;;;;55.80;2.00;;;4.40;1.00;;;;;;5053906;28;20619;-67
2020/12/29 04:52:02;;;;;;;56.20;2.83;;;4.40;1.00;;;;;;5053831;28;20561;-67
2020/12/29 04:54:33;;;;;;;55.75;2.25;;;4.40;1.00;;;;;;5053886;28;20665;-67
2020/12/29 04:57:01;;;;;;;55.58;2.20;;;4.50;1.00;;;;;;5053502;28;20695;-67
2020/12/29 04:59:28;;;;;;;56.55;2.42;;;4.50;1.00;;;;;;5053918;28;20226;-67
2020/12/29 05:01:55;;;;;;;57.53;2.40;;;4.50;1.00;;;;;;5053709;28;20696;-67
2020/12/29 05:04:22;;;;;;;55.10;2.00;;;4.60;1.00;;;;;;5053641;28;20202;-66
2020/12/29 05:06:48;;;;;;;56.20;2.40;;;4.60;1.00;;;;;;5052376;28;20237;-67
2020/12/29 05:09:14;;;;;;;56.35;2.10;;;4.50;1.00;;;;;;5053394;28;20471;-67
2020/12/29 05:11:41;;;;;;;57.75;2.30;;;4.50;1.00;;;;;;5053775;28;20202;-67
2020/12/29 05:14:08;;;;;;;57.70;2.20;;;4.50;1.00;;;;;;5054052;28;20216;-67
2020/12/29 05:16:38;;;;;;;55.88;2.10;;;4.50;1.00;;;;;;5053348;28;20677;-67
2020/12/29 05:19:06;;;;;;;55.72;2.10;;;4.40;1.00;;;;;;5053207;28;20431;-66
2020/12/29 05:21:35;;;;;;;55.13;2.35;;;4.30;1.00;;;;;;5053724;28;20205;-67
2020/12/29 05:24:12;;;;;;;55.60;2.10;;;4.20;1.00;;;;;;5053392;28;20263;-67
2020/12/29 05:26:40;;;;;;;56.38;2.25;;;4.20;1.00;;;;;;5053119;28;20235;-67
2020/12/29 05:29:08;;;;;;;56.40;2.28;;;4.20;1.00;;;;;;5053175;28;20307;-67
2020/12/29 05:31:36;;;;;;;55.30;2.15;;;4.20;1.00;;;;;;5052993;28;20205;-67
2020/12/29 05:34:03;;;;;;;55.70;2.20;;;4.20;1.00;;;;;;5053394;28;20206;-67
2020/12/29 05:36:35;;;;;;;55.80;2.30;;;4.20;1.00;;;;;;5053598;28;20201;-67
2020/12/29 05:39:06;;;;;;;56.95;2.03;;;4.20;1.00;;;;;;5054417;28;20312;-67
2020/12/29 05:41:37;;;;;;;56.65;2.20;;;4.20;1.00;;;;;;5053048;28;20205;-67
2020/12/29 05:44:05;;;;;;;59.55;2.40;;;4.30;1.00;;;;;;5052863;28;20209;-67
2020/12/29 05:46:33;;;;;;;57.42;2.50;;;4.20;1.00;;;;;;5052799;28;20233;-67
2020/12/29 05:49:00;;;;;;;55.58;2.47;;;4.30;1.00;;;;;;5052769;28;20234;-67
2020/12/29 05:51:27;;;;;;;66.53;2.70;;;4.30;1.00;;;;;;5052962;28;20216;-67
2020/12/29 05:53:59;;;;;;;55.72;2.10;;;4.30;1.00;;;;;;5052894;28;20231;-67
2020/12/29 05:56:29;;;;;;;56.17;2.58;;;4.40;1.00;;;;;;5052390;28;20202;-67
2020/12/29 05:58:56;;;;;;;55.97;2.20;;;4.40;1.00;;;;;;5052604;28;20238;-67
2020/12/29 06:01:22;;;;;;;55.35;2.00;;;4.50;1.00;;;;;;5052740;28;20582;-67
2020/12/29 06:03:51;;;;;;;56.35;2.50;;;4.50;1.00;;;;;;5052748;28;20216;-66
2020/12/29 06:06:22;;;;;;;55.40;1.90;;;4.50;1.00;;;;;;5052274;28;20229;-66
2020/12/29 06:08:52;;;;;;;55.50;2.30;;;4.50;1.00;;;;;;5052400;28;20237;-66
2020/12/29 06:11:22;;;;;;;55.95;2.08;;;4.50;1.00;;;;;;5052172;28;20206;-67
2020/12/29 06:13:48;;;;;;;57.05;2.13;;;4.50;1.00;;;;;;5052531;28;20266;-66
2020/12/29 06:16:17;;;;;;;55.30;2.10;;;4.50;1.00;;;;;;5052082;28;20884;-67
2020/12/29 06:18:46;;;;;;;55.67;2.17;;;4.40;1.00;;;;;;5052009;28;20283;-66
2020/12/29 06:21:14;;;;;;;55.58;2.17;;;4.50;1.00;;;;;;5052130;28;20677;-66
2020/12/29 06:23:46;;;;;;;55.67;2.00;;;4.40;1.00;;;;;;5052048;28;20205;-66
2020/12/29 06:26:18;;;;;;;55.53;2.25;;;4.40;1.00;;;;;;5051822;28;20273;-66
2020/12/29 06:28:48;;;;;;;55.58;2.10;;;4.40;1.00;;;;;;5052140;28;20782;-67
2020/12/29 06:31:26;;;;;;;55.92;2.30;;;4.30;1.00;;;;;;5052041;28;20211;-66
2020/12/29 06:33:55;;;;;;;55.95;2.40;;;4.30;1.00;;;;;;5052104;28;20205;-67
2020/12/29 06:36:23;;;;;;;58.53;2.30;;;4.30;1.00;;;;;;5051877;28;20198;-66
2020/12/29 06:38:51;;;;;;;55.80;2.28;;;4.30;1.00;;;;;;5052231;28;20229;-67
2020/12/29 06:41:19;;;;;;;55.42;2.45;;;4.20;1.00;;;;;;5051881;28;20551;-67
2020/12/29 06:43:46;;;;;;;55.97;2.30;;;4.20;1.00;;;;;;5051995;28;20205;-66
2020/12/29 06:46:14;;;;;;;55.60;2.25;;;4.20;1.00;;;;;;5051952;28;20627;-66
2020/12/29 06:48:41;;;;;;;55.63;2.30;;;4.20;1.00;;;;;;5051505;28;20240;-66
2020/12/29 06:51:09;;;;;;;55.90;2.33;;;4.30;1.00;;;;;;5051580;28;20213;-66
2020/12/29 06:53:38;;;;;;;57.45;2.53;;;4.30;1.00;;;;;;5051784;28;20643;-66
2020/12/29 06:56:05;;;;;;;56.08;2.35;;;4.30;1.00;;;;;;5051661;28;20285;-66
2020/12/29 06:58:32;;;;;;;55.60;2.28;;;4.40;1.00;;;;;;5051261;28;20233;-66
2020/12/29 07:01:22;;;;;;;58.25;2.63;;;4.40;1.00;;;;;;5051558;28;20252;-66
2020/12/29 07:03:59;;;;;;;56.53;2.50;;;4.50;1.00;;;;;;5051703;28;20631;-67
2020/12/29 07:06:28;;;;;;;55.65;2.35;;;4.40;1.00;;;;;;5051114;28;20240;-67
2020/12/29 07:09:01;;;;;;;56.42;2.60;;;4.40;1.00;;;;;;5051779;28;20745;-66
2020/12/29 07:11:27;;;;;;;56.72;2.70;;;4.40;1.00;;;;;;5051397;28;20209;-67
2020/12/29 07:13:54;;;;;;;55.53;2.30;;;4.40;1.00;;;;;;5051486;28;20306;-66
2020/12/29 07:16:25;;;;;;;56.25;2.40;;;4.40;1.00;;;;;;5051203;28;20255;-66
2020/12/29 07:18:52;;;;;;;58.03;2.38;;;4.40;1.00;;;;;;5051483;28;20225;-66
2020/12/29 07:21:26;;;;;;;55.88;2.42;;;4.40;1.00;;;;;;5051259;28;20256;-66
2020/12/29 07:23:53;;;;;;;56.35;2.40;;;4.40;1.00;;;;;;5050597;28;20587;-66
